Terminal Aerodrome Forecast
Issued by NWS Jacksonville, FL

Home | Current Version | Previous Version | Text Only | Print | Product List | Glossary On
Versions: 1 2 3 4 5 6 7 8 9 10 11 12 13 14 15
000
FTUS42 KJAX 231100
TAFSSI
TAF
KSSI 231125Z 2312/2412 25005KT P6SM SCT070
     FM231300 28008KT P6SM SCT060
     FM231800 13010KT P6SM SCT060=

USA.gov is the U.S. government's official web portal to all federal, state and local government web resources and services.